Flight Track Log - Related Links

Times and Time Zones

All times are in EST time to prevent confusion due to time zone crossing. See the SVA1481 flight status page for this flight to view local times or setup timezone preferences in your user account.

Time Position Orientation Groundspeed Altitude Reporting Facility
EST Latitude Longitude Course Direction KTS MPH feet Rate Location/Type
Mon 10:41:00 PM 25.7289 46.5707 351° North  Level Estimated
Mon 10:42:00 PM 25.8253 46.5546 351° North  Level Estimated
Mon 10:43:00 PM 25.9217 46.5385 351° North  Level Estimated
Mon 10:44:00 PM 26.0181 46.5223 351° North  Level Estimated
Mon 10:45:00 PM 26.1145 46.5061 351° North  Level Estimated
Mon 10:46:00 PM 26.2109 46.4899 351° North  Level Estimated
Mon 10:47:00 PM 26.3073 46.4736 351° North  Level Estimated
Mon 10:48:00 PM 26.4037 46.4573 351° North  Level Estimated
Mon 10:49:00 PM 26.5000 46.4410 351° North  Level Estimated
Mon 10:50:00 PM 26.5964 46.4247 351° North  Level Estimated
Mon 10:51:00 PM 26.6928 46.4083 351° North  Level Estimated
Mon 10:52:00 PM 26.7892 46.3919 351° North  Level Estimated
Mon 10:53:00 PM 26.8856 46.3755 351° North  Level Estimated
Mon 10:54:00 PM 26.9820 46.3591 351° North  Level Estimated
Mon 10:55:00 PM 27.0783 46.3426 351° North  Level Estimated
Mon 10:56:00 PM 27.1747 46.3261 351° North  Level Estimated
Mon 10:57:00 PM 27.2711 46.3096 351° North  Level Estimated
Mon 10:58:00 PM 27.3674 46.2930 351° North  Level Estimated
Mon 10:59:00 PM 27.4638 46.2764 351° North  Level Estimated
Mon 11:00:00 PM 27.5602 46.2598 351° North  Level Estimated
Mon 11:01:00 PM 27.6565 46.2432 351° North  Level Estimated
Mon 11:02:00 PM 27.7529 46.2265 351° North  Level Estimated
Mon 11:03:00 PM 27.8493 46.2098 351° North  Level Estimated
Mon 11:04:00 PM 27.9456 46.1930 351° North  Level Estimated
Mon 11:05:00 PM 28.0420 46.1763 351° North  Level Estimated
Mon 11:06:00 PM 28.1383 46.1595 351° North  Level Estimated
Mon 11:07:00 PM 28.2347 46.1427 351° North  Level Estimated
Mon 11:08:00 PM 28.3310 46.1258 351° North  Level Estimated
Mon 11:09:00 PM 28.3352 46.1251 351° North  Level Estimated
Mon 11:10:00 PM 28.3352 46.1251 336° Northwest  Level Estimated
Mon 11:11:00 PM 28.3352 46.1251 336° Northwest  Level Estimated
Mon 11:12:00 PM 28.3352 46.1251 336° Northwest  Level Estimated
Mon 11:13:00 PM 28.3352 46.1251 336° Northwest  Level Estimated
Mon 11:14:00 PM 28.3352 46.1251 336° Northwest  Level Estimated
Mon 11:15:00 PM 28.3352 46.1251 336° Northwest  Level Estimated
Mon 11:16:00 PM 28.3352 46.1251 336° Northwest  Level Estimated
Mon 11:17:00 PM 28.3352 46.1251 336° Northwest  Level Estimated
Mon 11:18:00 PM 28.3352 46.1251 336° Northwest  Level Estimated
Mon 11:19:00 PM 28.3352 46.1251 336° Northwest  Level Estimated
Mon 11:20:00 PM 28.3352 46.1251 336° Northwest  Level Estimated
Mon 11:21:00 PM 28.3352 46.1251 336° Northwest  Level Estimated
Mon 11:22:00 PM 28.3352 46.1251 336° Northwest  Level Estimated

Login

Don't have an account? Register now (free) for customized features, flight alerts, and more!